sensor_id;sensor_type;location;lat;lon;timestamp;P1;durP1;ratioP1;P2;durP2;ratioP2
66886;SDS011;67239;51.680;5.976;2023-07-22T00:01:07;11.93;;;8.57;;
66886;SDS011;67239;51.680;5.976;2023-07-22T00:03:35;12.57;;;8.75;;
66886;SDS011;67239;51.680;5.976;2023-07-22T00:06:04;12.18;;;8.18;;
66886;SDS011;67239;51.680;5.976;2023-07-22T00:08:33;15.35;;;8.13;;
66886;SDS011;67239;51.680;5.976;2023-07-22T00:11:05;14.27;;;8.20;;
66886;SDS011;67239;51.680;5.976;2023-07-22T00:13:33;10.43;;;8.63;;
66886;SDS011;67239;51.680;5.976;2023-07-22T00:16:01;10.90;;;8.68;;
66886;SDS011;67239;51.680;5.976;2023-07-22T00:18:31;10.80;;;8.40;;
66886;SDS011;67239;51.680;5.976;2023-07-22T00:20:59;11.88;;;8.40;;
66886;SDS011;67239;51.680;5.976;2023-07-22T00:23:26;11.85;;;8.18;;
66886;SDS011;67239;51.680;5.976;2023-07-22T00:25:53;10.75;;;7.88;;
66886;SDS011;67239;51.680;5.976;2023-07-22T00:28:20;14.63;;;8.32;;
66886;SDS011;67239;51.680;5.976;2023-07-22T00:30:48;12.38;;;9.05;;
66886;SDS011;67239;51.680;5.976;2023-07-22T00:33:16;13.60;;;9.07;;
66886;SDS011;67239;51.680;5.976;2023-07-22T00:35:46;12.30;;;8.23;;
66886;SDS011;67239;51.680;5.976;2023-07-22T00:38:17;11.18;;;8.52;;
66886;SDS011;67239;51.680;5.976;2023-07-22T00:40:45;11.13;;;8.52;;
66886;SDS011;67239;51.680;5.976;2023-07-22T00:43:12;10.18;;;8.38;;
66886;SDS011;67239;51.680;5.976;2023-07-22T00:45:39;12.43;;;8.90;;
66886;SDS011;67239;51.680;5.976;2023-07-22T00:48:06;12.35;;;8.55;;
66886;SDS011;67239;51.680;5.976;2023-07-22T00:50:36;11.77;;;9.05;;
66886;SDS011;67239;51.680;5.976;2023-07-22T00:53:05;15.40;;;9.10;;
66886;SDS011;67239;51.680;5.976;2023-07-22T00:55:33;12.52;;;8.98;;
66886;SDS011;67239;51.680;5.976;2023-07-22T00:58:02;14.60;;;9.93;;
66886;SDS011;67239;51.680;5.976;2023-07-22T01:00:29;12.73;;;9.20;;
66886;SDS011;67239;51.680;5.976;2023-07-22T01:02:57;11.65;;;9.25;;
66886;SDS011;67239;51.680;5.976;2023-07-22T01:05:25;13.05;;;8.80;;
66886;SDS011;67239;51.680;5.976;2023-07-22T01:07:54;13.25;;;9.20;;
66886;SDS011;67239;51.680;5.976;2023-07-22T01:10:22;12.45;;;9.35;;
66886;SDS011;67239;51.680;5.976;2023-07-22T01:12:49;12.95;;;9.02;;
66886;SDS011;67239;51.680;5.976;2023-07-22T01:15:16;13.65;;;9.52;;
66886;SDS011;67239;51.680;5.976;2023-07-22T01:17:44;12.65;;;9.15;;
66886;SDS011;67239;51.680;5.976;2023-07-22T01:20:12;12.77;;;8.73;;
66886;SDS011;67239;51.680;5.976;2023-07-22T01:22:40;14.10;;;9.35;;
66886;SDS011;67239;51.680;5.976;2023-07-22T01:25:16;14.43;;;9.57;;
66886;SDS011;67239;51.680;5.976;2023-07-22T01:27:44;12.63;;;9.05;;
66886;SDS011;67239;51.680;5.976;2023-07-22T01:30:11;12.98;;;9.30;;
66886;SDS011;67239;51.680;5.976;2023-07-22T01:32:38;11.75;;;9.07;;
66886;SDS011;67239;51.680;5.976;2023-07-22T01:35:06;12.73;;;9.38;;
66886;SDS011;67239;51.680;5.976;2023-07-22T01:37:34;13.40;;;9.60;;
66886;SDS011;67239;51.680;5.976;2023-07-22T01:40:03;12.85;;;9.30;;
66886;SDS011;67239;51.680;5.976;2023-07-22T01:42:39;14.18;;;9.77;;
66886;SDS011;67239;51.680;5.976;2023-07-22T01:45:08;13.32;;;9.00;;
66886;SDS011;67239;51.680;5.976;2023-07-22T01:47:36;12.63;;;9.77;;
66886;SDS011;67239;51.680;5.976;2023-07-22T01:50:06;12.27;;;9.65;;
66886;SDS011;67239;51.680;5.976;2023-07-22T01:52:34;14.00;;;9.93;;
66886;SDS011;67239;51.680;5.976;2023-07-22T01:55:01;13.38;;;9.20;;
66886;SDS011;67239;51.680;5.976;2023-07-22T01:57:32;12.60;;;9.25;;
66886;SDS011;67239;51.680;5.976;2023-07-22T02:00:00;14.45;;;10.10;;
66886;SDS011;67239;51.680;5.976;2023-07-22T02:02:27;17.50;;;9.63;;
66886;SDS011;67239;51.680;5.976;2023-07-22T02:04:54;13.30;;;9.50;;
66886;SDS011;67239;51.680;5.976;2023-07-22T02:07:21;14.02;;;10.05;;
66886;SDS011;67239;51.680;5.976;2023-07-22T02:09:48;15.18;;;9.52;;
66886;SDS011;67239;51.680;5.976;2023-07-22T02:12:18;15.15;;;10.27;;
66886;SDS011;67239;51.680;5.976;2023-07-22T02:14:45;16.15;;;10.23;;
66886;SDS011;67239;51.680;5.976;2023-07-22T02:17:13;16.98;;;10.07;;
66886;SDS011;67239;51.680;5.976;2023-07-22T02:19:40;13.73;;;9.95;;
66886;SDS011;67239;51.680;5.976;2023-07-22T02:22:07;12.25;;;9.32;;
66886;SDS011;67239;51.680;5.976;2023-07-22T02:24:34;14.05;;;10.07;;
66886;SDS011;67239;51.680;5.976;2023-07-22T02:27:01;16.63;;;9.82;;
66886;SDS011;67239;51.680;5.976;2023-07-22T02:29:30;14.25;;;10.07;;
66886;SDS011;67239;51.680;5.976;2023-07-22T02:31:58;14.73;;;9.75;;
66886;SDS011;67239;51.680;5.976;2023-07-22T02:34:25;16.25;;;9.57;;
66886;SDS011;67239;51.680;5.976;2023-07-22T02:36:52;14.20;;;9.50;;
66886;SDS011;67239;51.680;5.976;2023-07-22T02:39:19;14.05;;;10.00;;
66886;SDS011;67239;51.680;5.976;2023-07-22T02:41:47;12.85;;;9.65;;
66886;SDS011;67239;51.680;5.976;2023-07-22T02:44:14;13.68;;;9.75;;
66886;SDS011;67239;51.680;5.976;2023-07-22T02:46:41;14.30;;;9.95;;
66886;SDS011;67239;51.680;5.976;2023-07-22T02:49:08;14.10;;;10.10;;
66886;SDS011;67239;51.680;5.976;2023-07-22T02:51:36;14.27;;;9.68;;
66886;SDS011;67239;51.680;5.976;2023-07-22T02:54:04;13.18;;;10.10;;
66886;SDS011;67239;51.680;5.976;2023-07-22T02:56:31;12.60;;;9.65;;
66886;SDS011;67239;51.680;5.976;2023-07-22T02:58:58;14.15;;;9.63;;
66886;SDS011;67239;51.680;5.976;2023-07-22T03:01:25;13.50;;;9.25;;
66886;SDS011;67239;51.680;5.976;2023-07-22T03:03:53;13.77;;;10.27;;
66886;SDS011;67239;51.680;5.976;2023-07-22T03:06:20;14.75;;;10.10;;
66886;SDS011;67239;51.680;5.976;2023-07-22T03:08:47;13.23;;;9.65;;
66886;SDS011;67239;51.680;5.976;2023-07-22T03:11:16;13.77;;;10.40;;
66886;SDS011;67239;51.680;5.976;2023-07-22T03:13:43;12.80;;;9.95;;
66886;SDS011;67239;51.680;5.976;2023-07-22T03:16:10;14.35;;;10.48;;
66886;SDS011;67239;51.680;5.976;2023-07-22T03:18:37;15.60;;;10.35;;
66886;SDS011;67239;51.680;5.976;2023-07-22T03:21:06;13.52;;;10.07;;
66886;SDS011;67239;51.680;5.976;2023-07-22T03:23:33;13.68;;;10.57;;
66886;SDS011;67239;51.680;5.976;2023-07-22T03:26:01;14.98;;;10.90;;
66886;SDS011;67239;51.680;5.976;2023-07-22T03:28:28;13.30;;;10.32;;
66886;SDS011;67239;51.680;5.976;2023-07-22T03:30:55;15.73;;;10.23;;
66886;SDS011;67239;51.680;5.976;2023-07-22T03:33:23;17.20;;;10.85;;
66886;SDS011;67239;51.680;5.976;2023-07-22T03:35:50;15.90;;;10.90;;
66886;SDS011;67239;51.680;5.976;2023-07-22T03:38:17;13.15;;;10.10;;
66886;SDS011;67239;51.680;5.976;2023-07-22T03:40:44;13.75;;;10.75;;
66886;SDS011;67239;51.680;5.976;2023-07-22T03:43:11;15.18;;;10.45;;
66886;SDS011;67239;51.680;5.976;2023-07-22T03:45:38;12.00;;;9.68;;
66886;SDS011;67239;51.680;5.976;2023-07-22T03:48:06;17.20;;;10.55;;
66886;SDS011;67239;51.680;5.976;2023-07-22T03:50:33;15.38;;;10.70;;
66886;SDS011;67239;51.680;5.976;2023-07-22T03:53:01;15.93;;;10.60;;
66886;SDS011;67239;51.680;5.976;2023-07-22T03:55:29;15.00;;;10.73;;
66886;SDS011;67239;51.680;5.976;2023-07-22T03:57:56;15.90;;;10.98;;
66886;SDS011;67239;51.680;5.976;2023-07-22T04:00:23;14.55;;;9.93;;
66886;SDS011;67239;51.680;5.976;2023-07-22T04:02:50;14.73;;;10.82;;
66886;SDS011;67239;51.680;5.976;2023-07-22T04:05:18;15.15;;;10.50;;
66886;SDS011;67239;51.680;5.976;2023-07-22T04:07:46;16.85;;;11.30;;
66886;SDS011;67239;51.680;5.976;2023-07-22T04:10:13;16.13;;;10.68;;
66886;SDS011;67239;51.680;5.976;2023-07-22T04:12:40;16.23;;;10.43;;
66886;SDS011;67239;51.680;5.976;2023-07-22T04:15:08;14.93;;;10.93;;
66886;SDS011;67239;51.680;5.976;2023-07-22T04:17:36;13.18;;;10.13;;
66886;SDS011;67239;51.680;5.976;2023-07-22T04:20:03;16.77;;;11.00;;
66886;SDS011;67239;51.680;5.976;2023-07-22T04:22:34;15.55;;;11.27;;
66886;SDS011;67239;51.680;5.976;2023-07-22T04:25:01;15.55;;;10.52;;
66886;SDS011;67239;51.680;5.976;2023-07-22T04:27:28;18.52;;;10.98;;
66886;SDS011;67239;51.680;5.976;2023-07-22T04:29:55;18.67;;;10.63;;
66886;SDS011;67239;51.680;5.976;2023-07-22T04:32:22;16.13;;;10.57;;
66886;SDS011;67239;51.680;5.976;2023-07-22T04:34:51;14.77;;;9.95;;
66886;SDS011;67239;51.680;5.976;2023-07-22T04:37:18;16.80;;;10.80;;
66886;SDS011;67239;51.680;5.976;2023-07-22T04:39:48;14.98;;;10.07;;
66886;SDS011;67239;51.680;5.976;2023-07-22T04:42:16;15.02;;;10.63;;
66886;SDS011;67239;51.680;5.976;2023-07-22T04:44:47;15.25;;;10.65;;
66886;SDS011;67239;51.680;5.976;2023-07-22T04:47:16;13.52;;;10.02;;
66886;SDS011;67239;51.680;5.976;2023-07-22T04:49:43;15.52;;;11.05;;
66886;SDS011;67239;51.680;5.976;2023-07-22T04:52:10;13.77;;;10.20;;
66886;SDS011;67239;51.680;5.976;2023-07-22T04:54:37;13.90;;;10.30;;
66886;SDS011;67239;51.680;5.976;2023-07-22T04:57:05;15.98;;;10.75;;
66886;SDS011;67239;51.680;5.976;2023-07-22T04:59:32;16.27;;;10.50;;
66886;SDS011;67239;51.680;5.976;2023-07-22T05:01:59;15.00;;;10.63;;
66886;SDS011;67239;51.680;5.976;2023-07-22T05:04:26;14.60;;;9.90;;
66886;SDS011;67239;51.680;5.976;2023-07-22T05:06:55;15.63;;;11.30;;
66886;SDS011;67239;51.680;5.976;2023-07-22T05:09:27;15.13;;;10.60;;
66886;SDS011;67239;51.680;5.976;2023-07-22T05:11:54;16.83;;;10.02;;
66886;SDS011;67239;51.680;5.976;2023-07-22T05:14:21;17.25;;;10.65;;
66886;SDS011;67239;51.680;5.976;2023-07-22T05:16:50;15.52;;;10.48;;
66886;SDS011;67239;51.680;5.976;2023-07-22T05:19:18;14.25;;;10.02;;
66886;SDS011;67239;51.680;5.976;2023-07-22T05:21:45;14.63;;;10.82;;
66886;SDS011;67239;51.680;5.976;2023-07-22T05:24:14;13.90;;;10.15;;
66886;SDS011;67239;51.680;5.976;2023-07-22T05:26:41;19.20;;;11.27;;
66886;SDS011;67239;51.680;5.976;2023-07-22T05:29:20;14.95;;;10.52;;
66886;SDS011;67239;51.680;5.976;2023-07-22T05:31:49;16.45;;;11.13;;
66886;SDS011;67239;51.680;5.976;2023-07-22T05:34:17;12.80;;;9.65;;
66886;SDS011;67239;51.680;5.976;2023-07-22T05:36:46;18.25;;;10.38;;
66886;SDS011;67239;51.680;5.976;2023-07-22T05:39:17;15.02;;;10.15;;
66886;SDS011;67239;51.680;5.976;2023-07-22T05:41:45;11.38;;;9.15;;
66886;SDS011;67239;51.680;5.976;2023-07-22T05:44:12;15.45;;;10.05;;
66886;SDS011;67239;51.680;5.976;2023-07-22T05:46:49;13.82;;;9.48;;
66886;SDS011;67239;51.680;5.976;2023-07-22T05:49:19;11.85;;;9.10;;
66886;SDS011;67239;51.680;5.976;2023-07-22T05:51:47;15.88;;;9.25;;
66886;SDS011;67239;51.680;5.976;2023-07-22T05:54:14;15.18;;;9.30;;
66886;SDS011;67239;51.680;5.976;2023-07-22T05:56:41;15.82;;;9.57;;
66886;SDS011;67239;51.680;5.976;2023-07-22T05:59:08;11.68;;;8.70;;
66886;SDS011;67239;51.680;5.976;2023-07-22T06:01:36;13.60;;;9.05;;
66886;SDS011;67239;51.680;5.976;2023-07-22T06:04:05;14.15;;;9.82;;
66886;SDS011;67239;51.680;5.976;2023-07-22T06:06:35;14.48;;;9.30;;
66886;SDS011;67239;51.680;5.976;2023-07-22T06:09:05;13.65;;;8.80;;
66886;SDS011;67239;51.680;5.976;2023-07-22T06:11:32;13.98;;;8.77;;
66886;SDS011;67239;51.680;5.976;2023-07-22T06:14:05;17.85;;;9.07;;
66886;SDS011;67239;51.680;5.976;2023-07-22T06:16:39;15.25;;;8.18;;
66886;SDS011;67239;51.680;5.976;2023-07-22T06:19:06;11.68;;;8.38;;
66886;SDS011;67239;51.680;5.976;2023-07-22T06:21:33;18.33;;;9.13;;
66886;SDS011;67239;51.680;5.976;2023-07-22T06:24:00;15.35;;;9.98;;
66886;SDS011;67239;51.680;5.976;2023-07-22T06:26:28;14.30;;;9.30;;
66886;SDS011;67239;51.680;5.976;2023-07-22T06:28:55;15.90;;;9.90;;
66886;SDS011;67239;51.680;5.976;2023-07-22T06:31:26;16.17;;;10.25;;
66886;SDS011;67239;51.680;5.976;2023-07-22T06:33:57;15.73;;;10.60;;
66886;SDS011;67239;51.680;5.976;2023-07-22T06:36:26;16.60;;;10.95;;
66886;SDS011;67239;51.680;5.976;2023-07-22T06:38:56;14.00;;;9.43;;
66886;SDS011;67239;51.680;5.976;2023-07-22T06:41:23;18.80;;;10.02;;
66886;SDS011;67239;51.680;5.976;2023-07-22T06:43:52;14.70;;;9.80;;
66886;SDS011;67239;51.680;5.976;2023-07-22T06:46:20;16.13;;;10.23;;
66886;SDS011;67239;51.680;5.976;2023-07-22T06:48:48;16.08;;;10.40;;
66886;SDS011;67239;51.680;5.976;2023-07-22T06:51:15;18.02;;;10.73;;
66886;SDS011;67239;51.680;5.976;2023-07-22T06:53:42;17.20;;;10.40;;
66886;SDS011;67239;51.680;5.976;2023-07-22T06:56:09;14.20;;;10.15;;
66886;SDS011;67239;51.680;5.976;2023-07-22T06:58:37;16.45;;;10.02;;
66886;SDS011;67239;51.680;5.976;2023-07-22T07:01:04;16.55;;;10.13;;
66886;SDS011;67239;51.680;5.976;2023-07-22T07:03:31;15.68;;;9.70;;
66886;SDS011;67239;51.680;5.976;2023-07-22T07:06:01;15.68;;;9.45;;
66886;SDS011;67239;51.680;5.976;2023-07-22T07:08:33;16.58;;;9.98;;
66886;SDS011;67239;51.680;5.976;2023-07-22T07:11:00;16.27;;;9.55;;
66886;SDS011;67239;51.680;5.976;2023-07-22T07:13:30;17.60;;;9.85;;
66886;SDS011;67239;51.680;5.976;2023-07-22T07:15:58;16.17;;;10.63;;
66886;SDS011;67239;51.680;5.976;2023-07-22T07:18:56;13.60;;;10.35;;
66886;SDS011;67239;51.680;5.976;2023-07-22T07:21:25;18.23;;;10.57;;
66886;SDS011;67239;51.680;5.976;2023-07-22T07:23:53;18.73;;;10.23;;
66886;SDS011;67239;51.680;5.976;2023-07-22T07:26:21;14.85;;;10.00;;
66886;SDS011;67239;51.680;5.976;2023-07-22T07:28:50;18.77;;;10.70;;
66886;SDS011;67239;51.680;5.976;2023-07-22T07:31:18;14.93;;;9.85;;
66886;SDS011;67239;51.680;5.976;2023-07-22T07:33:46;15.68;;;9.63;;
66886;SDS011;67239;51.680;5.976;2023-07-22T07:36:13;14.82;;;9.93;;
66886;SDS011;67239;51.680;5.976;2023-07-22T07:38:41;17.63;;;10.07;;
66886;SDS011;67239;51.680;5.976;2023-07-22T07:41:09;15.57;;;8.88;;
66886;SDS011;67239;51.680;5.976;2023-07-22T07:43:40;16.85;;;10.30;;
66886;SDS011;67239;51.680;5.976;2023-07-22T07:49:09;16.33;;;9.73;;
66886;SDS011;67239;51.680;5.976;2023-07-22T07:51:36;16.67;;;10.40;;
66886;SDS011;67239;51.680;5.976;2023-07-22T07:54:03;14.80;;;9.05;;
66886;SDS011;67239;51.680;5.976;2023-07-22T07:56:33;18.85;;;10.65;;
66886;SDS011;67239;51.680;5.976;2023-07-22T07:59:00;17.73;;;9.73;;
66886;SDS011;67239;51.680;5.976;2023-07-22T08:01:29;16.40;;;9.98;;
66886;SDS011;67239;51.680;5.976;2023-07-22T08:03:56;16.77;;;10.15;;
66886;SDS011;67239;51.680;5.976;2023-07-22T08:06:24;17.90;;;10.43;;
66886;SDS011;67239;51.680;5.976;2023-07-22T08:08:51;16.35;;;9.85;;
66886;SDS011;67239;51.680;5.976;2023-07-22T08:11:18;17.15;;;9.32;;
66886;SDS011;67239;51.680;5.976;2023-07-22T08:13:45;17.05;;;10.32;;
66886;SDS011;67239;51.680;5.976;2023-07-22T08:16:13;16.45;;;9.93;;
66886;SDS011;67239;51.680;5.976;2023-07-22T08:18:41;14.38;;;9.43;;
66886;SDS011;67239;51.680;5.976;2023-07-22T08:21:08;14.75;;;9.60;;
66886;SDS011;67239;51.680;5.976;2023-07-22T08:23:36;18.00;;;9.20;;
66886;SDS011;67239;51.680;5.976;2023-07-22T08:26:09;12.95;;;9.30;;
66886;SDS011;67239;51.680;5.976;2023-07-22T08:28:36;16.90;;;9.27;;
66886;SDS011;67239;51.680;5.976;2023-07-22T08:31:05;13.52;;;8.57;;
66886;SDS011;67239;51.680;5.976;2023-07-22T08:33:32;16.95;;;8.50;;
66886;SDS011;67239;51.680;5.976;2023-07-22T08:36:02;13.77;;;8.90;;
66886;SDS011;67239;51.680;5.976;2023-07-22T08:38:29;14.15;;;8.60;;
66886;SDS011;67239;51.680;5.976;2023-07-22T08:40:57;13.50;;;7.78;;
66886;SDS011;67239;51.680;5.976;2023-07-22T08:43:24;14.00;;;7.53;;
66886;SDS011;67239;51.680;5.976;2023-07-22T08:45:54;13.77;;;7.85;;
66886;SDS011;67239;51.680;5.976;2023-07-22T08:48:31;12.55;;;7.40;;
66886;SDS011;67239;51.680;5.976;2023-07-22T08:51:04;11.30;;;7.00;;
66886;SDS011;67239;51.680;5.976;2023-07-22T08:53:40;19.90;;;7.90;;
66886;SDS011;67239;51.680;5.976;2023-07-22T08:56:08;12.63;;;7.15;;
66886;SDS011;67239;51.680;5.976;2023-07-22T08:58:37;12.23;;;7.50;;
66886;SDS011;67239;51.680;5.976;2023-07-22T09:01:05;12.25;;;7.22;;
66886;SDS011;67239;51.680;5.976;2023-07-22T09:03:34;11.95;;;7.07;;
66886;SDS011;67239;51.680;5.976;2023-07-22T09:06:02;13.68;;;6.78;;
66886;SDS011;67239;51.680;5.976;2023-07-22T09:08:31;12.68;;;7.88;;
66886;SDS011;67239;51.680;5.976;2023-07-22T09:10:58;13.23;;;6.95;;
66886;SDS011;67239;51.680;5.976;2023-07-22T09:13:26;11.27;;;7.03;;
66886;SDS011;67239;51.680;5.976;2023-07-22T09:15:53;14.38;;;6.35;;
66886;SDS011;67239;51.680;5.976;2023-07-22T09:18:25;11.77;;;7.00;;
66886;SDS011;67239;51.680;5.976;2023-07-22T09:20:53;14.25;;;6.75;;
66886;SDS011;67239;51.680;5.976;2023-07-22T09:23:42;14.68;;;6.70;;
66886;SDS011;67239;51.680;5.976;2023-07-22T09:26:10;12.52;;;6.68;;
66886;SDS011;67239;51.680;5.976;2023-07-22T09:28:48;11.35;;;5.93;;
66886;SDS011;67239;51.680;5.976;2023-07-22T09:31:15;10.25;;;5.90;;
66886;SDS011;67239;51.680;5.976;2023-07-22T09:33:42;8.73;;;5.80;;
66886;SDS011;67239;51.680;5.976;2023-07-22T09:36:10;14.77;;;6.10;;
66886;SDS011;67239;51.680;5.976;2023-07-22T09:38:38;13.52;;;5.68;;
66886;SDS011;67239;51.680;5.976;2023-07-22T09:41:05;12.13;;;5.35;;
66886;SDS011;67239;51.680;5.976;2023-07-22T09:43:36;12.05;;;5.50;;
66886;SDS011;67239;51.680;5.976;2023-07-22T09:46:05;9.70;;;5.15;;
66886;SDS011;67239;51.680;5.976;2023-07-22T09:48:43;10.70;;;5.10;;
66886;SDS011;67239;51.680;5.976;2023-07-22T09:51:15;9.10;;;5.18;;
66886;SDS011;67239;51.680;5.976;2023-07-22T09:53:46;9.70;;;5.28;;
66886;SDS011;67239;51.680;5.976;2023-07-22T09:56:26;9.02;;;5.05;;
66886;SDS011;67239;51.680;5.976;2023-07-22T09:58:54;8.63;;;5.18;;
66886;SDS011;67239;51.680;5.976;2023-07-22T10:01:23;7.22;;;4.10;;
66886;SDS011;67239;51.680;5.976;2023-07-22T10:03:55;8.10;;;4.35;;
66886;SDS011;67239;51.680;5.976;2023-07-22T10:06:26;6.80;;;4.20;;
66886;SDS011;67239;51.680;5.976;2023-07-22T10:08:56;7.45;;;4.50;;
66886;SDS011;67239;51.680;5.976;2023-07-22T10:11:24;8.63;;;4.40;;
66886;SDS011;67239;51.680;5.976;2023-07-22T10:13:55;11.75;;;5.40;;
66886;SDS011;67239;51.680;5.976;2023-07-22T10:16:23;8.63;;;4.40;;
66886;SDS011;67239;51.680;5.976;2023-07-22T10:18:51;6.65;;;3.75;;
66886;SDS011;67239;51.680;5.976;2023-07-22T10:21:20;8.20;;;4.40;;
66886;SDS011;67239;51.680;5.976;2023-07-22T10:23:49;8.73;;;3.90;;
66886;SDS011;67239;51.680;5.976;2023-07-22T10:26:18;8.52;;;4.90;;
66886;SDS011;67239;51.680;5.976;2023-07-22T10:28:58;8.38;;;4.43;;
66886;SDS011;67239;51.680;5.976;2023-07-22T10:31:30;7.85;;;4.00;;
66886;SDS011;67239;51.680;5.976;2023-07-22T10:33:58;7.82;;;3.42;;
66886;SDS011;67239;51.680;5.976;2023-07-22T10:36:28;8.30;;;4.00;;
66886;SDS011;67239;51.680;5.976;2023-07-22T10:38:58;7.43;;;3.88;;
66886;SDS011;67239;51.680;5.976;2023-07-22T10:41:33;5.72;;;3.00;;
66886;SDS011;67239;51.680;5.976;2023-07-22T10:44:06;6.33;;;3.00;;
66886;SDS011;67239;51.680;5.976;2023-07-22T10:46:37;7.32;;;3.60;;
66886;SDS011;67239;51.680;5.976;2023-07-22T10:49:10;7.80;;;3.45;;
66886;SDS011;67239;51.680;5.976;2023-07-22T10:51:39;7.50;;;3.33;;
66886;SDS011;67239;51.680;5.976;2023-07-22T10:54:11;6.28;;;3.55;;
66886;SDS011;67239;51.680;5.976;2023-07-22T10:56:43;6.90;;;3.10;;
66886;SDS011;67239;51.680;5.976;2023-07-22T10:59:11;4.72;;;2.75;;
66886;SDS011;67239;51.680;5.976;2023-07-22T11:01:39;5.32;;;3.00;;
66886;SDS011;67239;51.680;5.976;2023-07-22T11:11:58;4.00;;;2.45;;
66886;SDS011;67239;51.680;5.976;2023-07-22T11:14:49;4.85;;;2.67;;
66886;SDS011;67239;51.680;5.976;2023-07-22T11:17:27;6.35;;;3.05;;
66886;SDS011;67239;51.680;5.976;2023-07-22T11:19:58;4.85;;;2.33;;
66886;SDS011;67239;51.680;5.976;2023-07-22T11:22:27;6.10;;;2.63;;
66886;SDS011;67239;51.680;5.976;2023-07-22T11:25:00;4.38;;;2.40;;
66886;SDS011;67239;51.680;5.976;2023-07-22T11:27:27;4.50;;;2.55;;
66886;SDS011;67239;51.680;5.976;2023-07-22T11:29:57;5.43;;;2.50;;
66886;SDS011;67239;51.680;5.976;2023-07-22T11:32:31;5.72;;;2.42;;
66886;SDS011;67239;51.680;5.976;2023-07-22T11:35:01;5.82;;;2.42;;
66886;SDS011;67239;51.680;5.976;2023-07-22T11:37:28;6.07;;;2.95;;
66886;SDS011;67239;51.680;5.976;2023-07-22T11:39:59;5.80;;;2.50;;
66886;SDS011;67239;51.680;5.976;2023-07-22T11:42:30;4.80;;;2.35;;
66886;SDS011;67239;51.680;5.976;2023-07-22T11:45:01;7.40;;;2.70;;
66886;SDS011;67239;51.680;5.976;2023-07-22T11:47:31;9.98;;;2.78;;
66886;SDS011;67239;51.680;5.976;2023-07-22T11:49:58;7.00;;;2.33;;
66886;SDS011;67239;51.680;5.976;2023-07-22T11:52:26;9.25;;;2.53;;
66886;SDS011;67239;51.680;5.976;2023-07-22T11:54:54;7.25;;;2.10;;
66886;SDS011;67239;51.680;5.976;2023-07-22T11:57:30;5.90;;;2.10;;
66886;SDS011;67239;51.680;5.976;2023-07-22T11:59:57;8.55;;;1.92;;
66886;SDS011;67239;51.680;5.976;2023-07-22T12:02:25;3.85;;;1.65;;
66886;SDS011;67239;51.680;5.976;2023-07-22T12:05:01;3.92;;;1.50;;
66886;SDS011;67239;51.680;5.976;2023-07-22T12:07:32;6.00;;;1.60;;
66886;SDS011;67239;51.680;5.976;2023-07-22T12:10:06;3.42;;;1.50;;
66886;SDS011;67239;51.680;5.976;2023-07-22T12:12:37;3.58;;;1.70;;
66886;SDS011;67239;51.680;5.976;2023-07-22T12:15:16;2.53;;;1.33;;
66886;SDS011;67239;51.680;5.976;2023-07-22T12:17:52;7.57;;;1.55;;
66886;SDS011;67239;51.680;5.976;2023-07-22T12:20:27;4.88;;;1.30;;
66886;SDS011;67239;51.680;5.976;2023-07-22T12:22:57;6.90;;;1.30;;
66886;SDS011;67239;51.680;5.976;2023-07-22T12:25:26;2.65;;;1.17;;
66886;SDS011;67239;51.680;5.976;2023-07-22T12:27:54;3.80;;;1.30;;
66886;SDS011;67239;51.680;5.976;2023-07-22T12:30:21;3.45;;;1.40;;
66886;SDS011;67239;51.680;5.976;2023-07-22T12:32:48;2.58;;;1.13;;
66886;SDS011;67239;51.680;5.976;2023-07-22T12:35:16;5.53;;;1.40;;
66886;SDS011;67239;51.680;5.976;2023-07-22T12:37:43;7.18;;;1.42;;
66886;SDS011;67239;51.680;5.976;2023-07-22T12:40:10;7.63;;;1.40;;
66886;SDS011;67239;51.680;5.976;2023-07-22T12:42:40;7.43;;;1.52;;
66886;SDS011;67239;51.680;5.976;2023-07-22T12:45:08;9.32;;;1.30;;
66886;SDS011;67239;51.680;5.976;2023-07-22T12:47:36;3.58;;;1.40;;
66886;SDS011;67239;51.680;5.976;2023-07-22T12:50:04;5.68;;;1.58;;
66886;SDS011;67239;51.680;5.976;2023-07-22T12:52:35;5.03;;;1.52;;
66886;SDS011;67239;51.680;5.976;2023-07-22T12:55:05;3.05;;;1.40;;
66886;SDS011;67239;51.680;5.976;2023-07-22T12:57:33;3.15;;;1.40;;
66886;SDS011;67239;51.680;5.976;2023-07-22T13:00:00;4.93;;;1.50;;
66886;SDS011;67239;51.680;5.976;2023-07-22T13:02:28;4.43;;;1.30;;
66886;SDS011;67239;51.680;5.976;2023-07-22T13:04:55;2.30;;;1.30;;
66886;SDS011;67239;51.680;5.976;2023-07-22T13:07:22;4.82;;;1.67;;
66886;SDS011;67239;51.680;5.976;2023-07-22T13:09:49;2.47;;;1.40;;
66886;SDS011;67239;51.680;5.976;2023-07-22T13:12:19;3.90;;;1.30;;
66886;SDS011;67239;51.680;5.976;2023-07-22T13:14:46;3.40;;;1.48;;
66886;SDS011;67239;51.680;5.976;2023-07-22T13:17:14;4.63;;;1.60;;
66886;SDS011;67239;51.680;5.976;2023-07-22T13:19:41;3.97;;;1.30;;
66886;SDS011;67239;51.680;5.976;2023-07-22T13:22:09;3.97;;;1.60;;
66886;SDS011;67239;51.680;5.976;2023-07-22T13:24:36;3.70;;;1.45;;
66886;SDS011;67239;51.680;5.976;2023-07-22T13:27:03;3.47;;;1.60;;
66886;SDS011;67239;51.680;5.976;2023-07-22T13:29:32;2.58;;;1.20;;
66886;SDS011;67239;51.680;5.976;2023-07-22T13:31:59;8.40;;;1.80;;
66886;SDS011;67239;51.680;5.976;2023-07-22T13:34:28;4.50;;;1.60;;
66886;SDS011;67239;51.680;5.976;2023-07-22T13:36:55;4.25;;;1.58;;
66886;SDS011;67239;51.680;5.976;2023-07-22T13:39:22;5.45;;;1.67;;
66886;SDS011;67239;51.680;5.976;2023-07-22T13:41:50;4.65;;;1.48;;
66886;SDS011;67239;51.680;5.976;2023-07-22T13:44:17;4.85;;;1.42;;
66886;SDS011;67239;51.680;5.976;2023-07-22T13:46:44;2.35;;;1.20;;
66886;SDS011;67239;51.680;5.976;2023-07-22T13:49:12;2.67;;;1.40;;
66886;SDS011;67239;51.680;5.976;2023-07-22T13:51:39;3.58;;;1.30;;
66886;SDS011;67239;51.680;5.976;2023-07-22T13:54:06;4.35;;;1.63;;
66886;SDS011;67239;51.680;5.976;2023-07-22T13:56:33;5.53;;;1.38;;
66886;SDS011;67239;51.680;5.976;2023-07-22T13:59:00;3.40;;;1.58;;
66886;SDS011;67239;51.680;5.976;2023-07-22T14:01:30;5.15;;;1.75;;
66886;SDS011;67239;51.680;5.976;2023-07-22T14:03:58;4.40;;;1.63;;
66886;SDS011;67239;51.680;5.976;2023-07-22T14:06:25;3.42;;;1.67;;
66886;SDS011;67239;51.680;5.976;2023-07-22T14:08:52;2.78;;;1.60;;
66886;SDS011;67239;51.680;5.976;2023-07-22T14:11:20;2.85;;;1.60;;
66886;SDS011;67239;51.680;5.976;2023-07-22T14:13:47;3.47;;;1.40;;
66886;SDS011;67239;51.680;5.976;2023-07-22T14:16:14;2.72;;;1.52;;
66886;SDS011;67239;51.680;5.976;2023-07-22T14:18:49;3.03;;;1.50;;
66886;SDS011;67239;51.680;5.976;2023-07-22T14:21:16;4.95;;;1.50;;
66886;SDS011;67239;51.680;5.976;2023-07-22T14:23:44;4.30;;;1.50;;
66886;SDS011;67239;51.680;5.976;2023-07-22T14:26:11;2.10;;;1.20;;
66886;SDS011;67239;51.680;5.976;2023-07-22T14:28:38;2.83;;;1.40;;
66886;SDS011;67239;51.680;5.976;2023-07-22T14:31:05;5.72;;;1.75;;
66886;SDS011;67239;51.680;5.976;2023-07-22T14:33:33;3.72;;;1.10;;
66886;SDS011;67239;51.680;5.976;2023-07-22T14:36:01;1.90;;;1.10;;
66886;SDS011;67239;51.680;5.976;2023-07-22T14:38:29;1.88;;;1.00;;
66886;SDS011;67239;51.680;5.976;2023-07-22T14:40:57;2.28;;;1.20;;
66886;SDS011;67239;51.680;5.976;2023-07-22T14:43:24;3.42;;;1.20;;
66886;SDS011;67239;51.680;5.976;2023-07-22T14:45:52;3.47;;;1.20;;
66886;SDS011;67239;51.680;5.976;2023-07-22T14:48:21;7.65;;;1.38;;
66886;SDS011;67239;51.680;5.976;2023-07-22T14:50:48;2.35;;;1.23;;
66886;SDS011;67239;51.680;5.976;2023-07-22T14:53:16;2.63;;;0.90;;
66886;SDS011;67239;51.680;5.976;2023-07-22T14:55:43;1.90;;;1.17;;